Data for 04/13/2005

Time Sea-Level Adjusted Pressure Absolute Pressure Temperature Relative Humidity Dew Point   
(mb) (inHg) (mb) (inHg) (C) (F) (%) (C) (F)
00:05 1012 29.88 841 24.83 10.7 51.3 33 -4.7 23.5
00:10 1012 29.88 841 24.83 10.8 51.5 33 -4.9 23.2
00:15 1012 29.88 841 24.83 10.7 51.2 33 -5 23
00:20 1012 29.88 841 24.83 10.6 51 32 -5.3 22.5
00:25 1012 29.88 841 24.83 10.9 51.6 32 -5.2 22.7
00:30 1012 29.88 841 24.83 10.5 51 32 -5.4 22.3
00:35 1012 29.88 841 24.83 11.1 52 30 -5.6 21.9
00:40 1012 29.88 841 24.83 11.5 52.6 30 -5.4 22.3
00:45 1012 29.88 841 24.83 11.2 52.2 31 -5.3 22.5
00:50 1012 29.88 841 24.83 11 51.7 31 -5.7 21.8
00:55 1012 29.88 841 24.83 11.3 52.3 30 -5.8 21.6
01:00 1012 29.88 841 24.83 11.4 52.5 30 -5.7 21.8
01:05 1012 29.88 841 24.83 11.1 52 30 -5.7 21.7
01:10 1012 29.88 841 24.83 11 51.7 30 -5.7 21.7
01:15 1012 29.88 841 24.83 10.8 51.5 31 -5.8 21.6
01:20 1012 29.88 841 24.83 10.9 51.6 30 -5.9 21.4
01:25 1012 29.88 841 24.83 11 51.8 30 -5.9 21.4
01:30 1012 29.88 841 24.83 11.1 51.9 29 -6.1 21
01:35 1012 29.88 841 24.83 11.1 51.9 30 -5.8 21.6
01:40 1012 29.88 841 24.83 10.7 51.3 31 -5.9 21.5
01:45 1012 29.88 841 24.83 10.5 50.8 32 -5.5 22.1
01:50 1012 29.88 841 24.83 9.9 49.8 32 -5.9 21.3
01:55 1012 29.88 841 24.83 10.1 50.1 32 -5.9 21.5
02:00 1012 29.88 841 24.83 9.9 49.8 32 -6 21.3
02:05 1012 29.88 841 24.83 9.9 49.7 33 -5.7 21.8
02:10 1012 29.88 841 24.83 9.6 49.2 33 -5.7 21.7
02:15 1012 29.88 841 24.83 9.2 48.5 34 -5.8 21.6
02:20 1012 29.88 841 24.83 9.6 49.3 32 -6.1 20.9
02:25 1012 29.88 841 24.83 9.8 49.7 32 -5.9 21.4
02:30 1012 29.88 841 24.83 9.6 49.3 34 -5.7 21.8
02:35 1012 29.88 841 24.83 9.4 49 34 -5.8 21.5
02:40 1012 29.88 841 24.83 9.2 48.5 35 -5.4 22.2
02:45 1012 29.88 841 24.83 8.7 47.7 35 -5.8 21.5
02:50 1012 29.88 841 24.83 8.8 47.8 34 -6.3 20.7
02:55 1012 29.88 841 24.83 8.8 47.9 35 -5.8 21.5
03:00 1012 29.88 841 24.83 8.4 47.2 38 -5.1 22.8
03:05 1012 29.88 841 24.83 7.6 45.6 40 -5.1 22.7
03:10 1012 29.88 841 24.83 7.3 45.1 41 -5 23
03:15 1012 29.88 841 24.83 7.1 44.8 42 -5 23
03:20 1012 29.88 841 24.83 7.3 45.1 40 -5.4 22.3
03:25 1012 29.88 841 24.83 7.6 45.6 39 -5.5 22
03:30 1012 29.88 841 24.83 7.6 45.7 39 -5.4 22.3
03:35 1012 29.88 841 24.83 7.5 45.6 39 -5.5 22.1
03:40 1012 29.88 841 24.83 7.6 45.7 38 -5.7 21.7
03:45 1012 29.88 841 24.83 7.9 46.2 38 -5.6 21.9
03:50 1012 29.88 841 24.83 8.1 46.5 37 -5.6 21.9
03:55 1012 29.88 841 24.83 8.1 46.5 37 -5.6 21.9
04:00 1012 29.88 841 24.83 8.1 46.5 38 -5.5 22.1
04:05 1012 29.88 841 24.83 8.1 46.5 37 -5.6 21.9
04:10 1011 29.85 841 24.83 8.2 46.7 37 -5.7 21.7
04:15 1011 29.85 840 24.81 8.4 47 36 -5.8 21.6
04:20 1011 29.85 840 24.81 8.4 47.1 36 -5.8 21.5
04:25 1011 29.85 841 24.83 8.3 46.9 36 -6.1 21.1
04:30 1011 29.85 840 24.81 8.5 47.3 34 -6.4 20.5
04:35 1011 29.85 840 24.81 9.1 48.3 33 -6.4 20.4
04:40 1011 29.85 840 24.81 9.1 48.4 34 -6.1 21
04:45 1011 29.85 840 24.81 8.9 48 34 -6.2 20.9
04:50 1011 29.85 840 24.81 9 48.2 34 -6.2 20.8
04:55 1011 29.85 840 24.81 8.9 48.1 34 -6.2 20.8
05:00 1011 29.85 840 24.81 8.9 48 34 -5.9 21.3
05:05 1011 29.85 840 24.81 8.7 47.7 35 -5.8 21.6
05:10 1011 29.85 840 24.81 8.9 48.1 34 -5.9 21.4
05:15 1011 29.85 840 24.81 8.9 48 35 -5.9 21.4
05:20 1011 29.85 840 24.81 9.1 48.3 34 -5.9 21.3
05:25 1011 29.85 840 24.81 9.3 48.8 34 -5.9 21.3
05:30 1011 29.85 840 24.81 9.5 49.1 33 -6 21.1
05:35 1011 29.85 840 24.81 9.7 49.4 32 -6 21.1
05:40 1011 29.85 840 24.81 9.9 49.7 32 -6.1 21
05:45 1011 29.85 840 24.81 9.8 49.6 32 -5.9 21.3
05:50 1011 29.85 840 24.81 9.7 49.5 32 -6.1 21
05:55 1011 29.85 840 24.81 9.4 48.8 34 -5.8 21.6
06:00 1011 29.85 840 24.81 8.9 48.1 35 -5.8 21.5
06:05 1011 29.85 840 24.81 8.7 47.7 35 -5.9 21.4
06:10 1011 29.85 840 24.81 8.7 47.7 35 -6 21.2
06:15 1011 29.85 840 24.81 8.8 47.9 35 -5.9 21.3
06:20 1011 29.85 840 24.81 8.9 48 34 -6.1 21
06:25 1011 29.85 840 24.81 9.1 48.4 33 -6.3 20.7
06:30 1011 29.85 840 24.81 9.2 48.5 34 -6 21.3
06:35 1011 29.85 840 24.81 8.9 48 34 -6 21.3
06:40 1011 29.85 840 24.81 8.8 47.8 35 -6 21.2
06:45 1011 29.85 840 24.81 8.6 47.5 35 -5.9 21.3
06:50 1011 29.85 841 24.83 8.5 47.4 35 -6 21.2
06:55 1011 29.85 841 24.83 8.6 47.5 35 -6.1 21
07:00 1011 29.85 841 24.83 8.7 47.6 35 -5.9 21.3
07:05 1011 29.85 841 24.83 8.7 47.7 35 -6 21.3
07:10 1011 29.85 841 24.83 8.6 47.5 35 -5.9 21.4
07:15 1011 29.85 841 24.83 8.8 47.8 35 -5.9 21.4
07:20 1012 29.88 841 24.83 8.8 47.8 36 -5.6 21.9
07:25 1012 29.88 841 24.83 8.4 47.2 37 -5.4 22.3
07:30 1012 29.88 841 24.83 8.2 46.7 38 -5.5 22.2
07:35 1012 29.88 841 24.83 8.6 47.6 35 -6.1 20.9
07:40 1012 29.88 841 24.83 9.2 48.6 33 -6 21.1
07:45 1012 29.88 841 24.83 9.6 49.2 33 -5.9 21.4
07:50 1011 29.85 841 24.83 9.7 49.5 33 -5.9 21.4
07:55 1012 29.88 841 24.83 10 50 32 -5.9 21.4
08:00 1012 29.88 841 24.83 10.2 50.4 32 -5.7 21.7
08:05 1012 29.88 841 24.83 10.4 50.6 32 -5.5 22
08:10 1012 29.88 841 24.83 10.6 51.1 31 -5.9 21.5
08:15 1012 29.88 841 24.83 10.8 51.5 32 -5.2 22.6
08:20 1012 29.88 841 24.83 10.8 51.4 32 -5.3 22.5
08:25 1012 29.88 841 24.83 11 51.8 32 -5.2 22.6
08:30 1012 29.88 841 24.83 11.1 52 32 -4.9 23.2
08:35 1012 29.88 841 24.83 11.5 52.8 31 -5.1 22.9
08:40 1012 29.88 841 24.83 12.1 53.7 30 -5 23.1
08:45 1011 29.85 841 24.83 12.4 54.3 30 -4.6 23.7
08:50 1011 29.85 841 24.83 12.7 54.8 30 -4.6 23.8
08:55 1011 29.85 841 24.83 13.4 56.1 28 -4.6 23.8
09:00 1011 29.85 841 24.83 14.1 57.4 27 -4.4 24.1
09:05 1011 29.85 841 24.83 14.9 58.9 21 -7.1 19.1
09:10 1011 29.85 841 24.83 15.7 60.2 21 -6.6 20.1
09:15 1011 29.85 840 24.81 15.9 60.6 21 -6.6 20.1
09:20 1011 29.85 840 24.81 16 60.7 21 -6.6 20.2
09:25 1011 29.85 840 24.81 16 60.8 20 -6.6 20.2
09:30 1011 29.85 841 24.83 16.1 61 20 -6.8 19.8
09:35 1011 29.85 840 24.81 16.3 61.3 20 -6.8 19.7
09:40 1011 29.85 840 24.81 16.4 61.5 19 -7.3 18.9
09:45 1011 29.85 840 24.81 16.4 61.5 19 -7.2 19
09:50 1011 29.85 840 24.81 16.7 62.1 21 -5.8 21.6
09:55 1011 29.85 840 24.81 16.9 62.5 19 -6.8 19.7
10:00 1011 29.85 840 24.81 17.1 62.8 18 -7.1 19.3
10:05 1011 29.85 840 24.81 17.2 62.9 18 -7 19.4
10:10 1011 29.85 840 24.81 17 62.7 21 -5.4 22.3
10:15 1011 29.85 840 24.81 17.2 62.9 19 -6.8 19.7
10:20 1011 29.85 840 24.81 17.1 62.8 18 -7.2 19.1
10:25 1011 29.85 840 24.81 17.3 63.2 18 -7 19.5
10:30 1011 29.85 840 24.81 17.4 63.4 19 -6.6 20.1
10:35 1011 29.85 840 24.81 17.4 63.2 19 -6.6 20.1
10:40 1011 29.85 840 24.81 17.4 63.4 18 -6.8 19.7
10:45 1011 29.85 840 24.81 17.4 63.3 19 -6.5 20.2
10:50 1011 29.85 840 24.81 17.5 63.4 21 -5.2 22.6
10:55 1011 29.85 840 24.81 17.7 63.9 18 -6.7 20
11:00 1011 29.85 840 24.81 17.6 63.8 18 -6.7 20
11:05 1011 29.85 840 24.81 17.7 63.8 19 -6.4 20.6
11:10 1010 29.83 840 24.81 18 64.3 18 -6.6 20.1
11:15 1011 29.85 840 24.81 18 64.3 18 -6.4 20.5
11:20 1010 29.83 840 24.81 18.3 64.9 17 -6.8 19.7
11:25 1010 29.83 839 24.78 17.9 64.3 16 -7.9 17.8
11:30 1010 29.83 839 24.78 18 64.4 17 -7 19.5
11:35 1010 29.83 839 24.78 18.1 64.6 17 -6.9 19.6
11:40 1010 29.83 839 24.78 18.2 64.7 16 -8.3 17.1
11:45 1010 29.83 839 24.78 18.1 64.6 16 -8.4 16.9
11:50 1010 29.83 839 24.78 18.3 64.9 16 -8.1 17.4
11:55 1010 29.83 839 24.78 18.4 65.2 16 -7.9 17.7
12:00 1010 29.83 839 24.78 18.6 65.5 16 -8 17.6
12:05 1010 29.83 839 24.78 18.1 64.5 16 -8 17.6
12:10 1010 29.83 839 24.78 18.1 64.6 16 -7.7 18.2
12:15 1010 29.83 839 24.78 18.4 65.1 16 -8.1 17.4
12:20 1010 29.83 839 24.78 18.5 65.3 16 -7.4 18.7
12:25 1010 29.83 839 24.78 18.7 65.7 15 -8 17.6
12:30 1009 29.8 839 24.78 18.8 65.8 16 -7.7 18.1
12:35 1009 29.8 839 24.78 18.8 65.8 15 -8.2 17.2
12:40 1010 29.83 839 24.78 18.9 66.1 15 -7.8 18
12:45 1009 29.8 839 24.78 19 66.2 15 -8.1 17.4
12:50 1009 29.8 839 24.78 18.6 65.5 15 -8.6 16.5
12:55 1009 29.8 838 24.75 18.4 65.2 15 -8.6 16.5
13:00 1009 29.8 838 24.75 18.3 64.9 14 -9.3 15.2
13:05 1009 29.8 838 24.75 18.8 65.9 15 -8.6 16.5
13:10 1009 29.8 838 24.75 19 66.2 14 -9 15.9
13:15 1009 29.8 838 24.75 18.9 66 14 -9.4 15.1
13:20 1009 29.8 838 24.75 19 66.3 14 -9.2 15.5
13:25 1009 29.8 838 24.75 19 66.2 14 -9 15.8
13:30 1009 29.8 838 24.75 18.9 65.9 14 -9.3 15.2
13:35 1009 29.8 838 24.75 19.5 67 13 -9.3 15.3
13:40 1009 29.8 838 24.75 19.4 66.9 13 -9.2 15.4
13:45 1009 29.8 838 24.75 19.5 67.1 15 -8 17.6
13:50 1009 29.8 838 24.75 19.2 66.6 13 -9.6 14.7
13:55 1008 29.77 838 24.75 19.5 67.2 13 -9.3 15.3
14:00 1008 29.77 838 24.75 19.4 66.8 12 -10.5 13.1
14:05 1008 29.77 838 24.75 19.6 67.3 13 -9.6 14.7
14:10 1008 29.77 837 24.72 19.6 67.3 12 -10.7 12.7
14:15 1008 29.77 838 24.75 19.4 66.9 12 -10.5 13
14:20 1008 29.77 838 24.75 19.7 67.4 13 -9 15.7
14:25 1008 29.77 837 24.72 19.8 67.6 12 -10.3 13.4
14:30 1008 29.77 837 24.72 19.7 67.4 13 -9.3 15.2
14:35 1008 29.77 837 24.72 19.7 67.4 12 -10.5 13
14:40 1008 29.77 837 24.72 19.9 67.7 13 -9.6 14.6
14:45 1008 29.77 837 24.72 19.6 67.3 12 -10.2 13.7
14:50 1008 29.77 837 24.72 19.9 67.8 12 -10.4 13.2
14:55 1008 29.77 837 24.72 19.8 67.6 13 -9.4 15.1
15:00 1008 29.77 837 24.72 19.7 67.4 12 -10.5 13
15:05 1008 29.77 837 24.72 19.4 66.8 12 -10.4 13.3
15:10 1008 29.77 837 24.72 19.5 67 12 -10.3 13.5
15:15 1008 29.77 837 24.72 19.8 67.7 13 -8.9 15.9
15:20 1007 29.74 837 24.72 20.1 68.1 12 -10.3 13.4
15:25 1007 29.74 837 24.72 19.5 67.1 12 -10.2 13.6
15:30 1007 29.74 837 24.72 19.8 67.6 12 -10.6 13
15:35 1007 29.74 837 24.72 19.5 67.1 12 -10.4 13.4
15:40 1007 29.74 837 24.72 19.7 67.4 12 -10.1 13.9
15:45 1007 29.74 836 24.69 19.6 67.3 12 -10.2 13.7
15:50 1007 29.74 836 24.69 19.7 67.5 12 -10.6 12.9
15:55 1007 29.74 836 24.69 19.6 67.2 12 -10.1 13.7
16:00 1007 29.74 836 24.69 19.9 67.8 14 -8.5 16.7
16:05 1007 29.74 836 24.69 19.5 67.1 12 -10.3 13.4
16:10 1007 29.74 836 24.69 19.3 66.7 14 -9 15.9
16:15 1007 29.74 836 24.69 19.2 66.6 12 -10.6 13
16:20 1007 29.74 836 24.69 19 66.2 13 -10.4 13.2
16:25 1007 29.74 836 24.69 19.5 67 12 -10.5 13.2
16:30 1007 29.74 836 24.69 19.6 67.2 13 -9.9 14.2
16:35 1007 29.74 836 24.69 19.8 67.7 12 -10 13.9
16:40 1007 29.74 836 24.69 19.9 67.8 12 -10.4 13.3
16:45 1007 29.74 836 24.69 19.9 67.8 12 -10.3 13.4
16:50 1007 29.74 836 24.69 19.5 67.2 12 -10.2 13.7
16:55 1007 29.74 836 24.69 19.8 67.6 12 -10.3 13.5
17:00 1006 29.71 836 24.69 19.5 67.1 12 -10.1 13.8
17:05 1006 29.71 835 24.66 19.8 67.7 12 -10.2 13.7
17:10 1006 29.71 835 24.66 19.7 67.5 12 -10.3 13.4
17:15 1006 29.71 835 24.66 19.9 67.7 12 -10 14
17:20 1006 29.71 835 24.66 20 68 12 -10.5 13.2
17:25 1006 29.71 835 24.66 20.1 68.2 12 -10.5 13.1
17:30 1006 29.71 835 24.66 20 68.1 11 -10.7 12.7
17:35 1006 29.71 835 24.66 20 67.9 12 -10 14
17:40 1006 29.71 835 24.66 19.9 67.8 12 -9.8 14.4
17:45 1006 29.71 835 24.66 20 67.9 12 -10.2 13.6
17:50 1006 29.71 835 24.66 19.9 67.8 12 -9.9 14.1
17:55 1006 29.71 835 24.66 19.7 67.5 12 -9.9 14.1
18:00 1006 29.71 835 24.66 19.7 67.4 12 -10 14
18:05 1006 29.71 835 24.66 19.8 67.7 12 -10 14
18:10 1006 29.71 835 24.66 19.7 67.4 12 -10.1 13.9
18:15 1006 29.71 835 24.66 19.7 67.4 13 -9.5 15
18:20 1006 29.71 835 24.66 19.6 67.2 12 -10.3 13.4
18:25 1006 29.71 835 24.66 19.4 66.9 12 -10.5 13.1
18:30 1006 29.71 835 24.66 19.3 66.7 13 -10 14
18:35 1006 29.71 835 24.66 19.3 66.7 13 -9.8 14.3
18:40 1006 29.71 835 24.66 19.2 66.6 13 -9.5 14.9
18:45 1006 29.71 835 24.66 19.1 66.4 13 -10.1 13.8
18:50 1005 29.68 835 24.66 19.1 66.4 15 -8.1 17.5
18:55 1005 29.68 835 24.66 19.1 66.4 13 -10.2 13.6
19:00 1006 29.71 835 24.66 19.1 66.3 13 -10.2 13.6
19:05 1005 29.68 835 24.66 19 66.2 14 -9.3 15.3
19:10 1005 29.68 835 24.66 18.9 66 13 -10.1 13.8
19:15 1005 29.68 834 24.63 18.7 65.7 14 -9.7 14.6
19:20 1005 29.68 834 24.63 18.6 65.4 13 -10.1 13.8
19:25 1005 29.68 834 24.63 18.5 65.2 13 -10.5 13.1
19:30 1005 29.68 834 24.63 18.5 65.3 13 -10.1 13.8
19:35 1005 29.68 834 24.63 18.3 65 13 -10.2 13.7
19:40 1005 29.68 834 24.63 18.1 64.5 14 -9.3 15.2
19:45 1005 29.68 834 24.63 18 64.5 13 -10.4 13.2
19:50 1005 29.68 834 24.63 18.1 64.5 14 -10 13.9
19:55 1005 29.68 834 24.63 17.8 64.1 14 -10.1 13.8
20:00 1005 29.68 834 24.63 17.6 63.6 14 -10.2 13.7
20:05 1005 29.68 834 24.63 17.4 63.3 19 -6.6 20.1
20:10 1005 29.68 834 24.63 17.3 63.2 14 -10.2 13.7
20:15 1005 29.68 834 24.63 17 62.6 15 -10.2 13.6
20:20 1005 29.68 834 24.63 17 62.6 19 -6.9 19.6
20:25 1005 29.68 834 24.63 16.5 61.8 15 -10.2 13.6
20:30 1005 29.68 834 24.63 16.2 61.1 16 -9.4 15.1
20:35 1005 29.68 834 24.63 15.4 59.8 22 -6.1 21
20:40 1005 29.68 834 24.63 14.4 57.9 23 -6.6 20.2
20:45 1005 29.68 834 24.63 13.1 55.6 26 -6.1 21
20:50 1005 29.68 834 24.63 13.1 55.5 22 -7.9 17.8
20:55 1005 29.68 834 24.63 13.4 56.1 22 -8 17.6
21:00 1005 29.68 834 24.63 13.9 57 21 -8.1 17.4
21:05 1005 29.68 834 24.63 14 57.2 23 -7 19.5
21:10 1005 29.68 834 24.63 13.6 56.5 22 -7.8 18
21:15 1005 29.68 834 24.63 14.1 57.4 21 -7.7 18.1
21:20 1005 29.68 834 24.63 14.2 57.6 23 -6.5 20.3
21:25 1004 29.65 834 24.63 13.9 56.9 23 -6.6 20.1
21:30 1005 29.68 834 24.63 13 55.5 24 -7.1 19.3
21:35 1004 29.65 834 24.63 12.3 54.2 25 -6.9 19.6
21:40 1004 29.65 834 24.63 12.2 54 25 -7.3 18.8
21:45 1004 29.65 834 24.63 12.4 54.4 25 -7.1 19.2
21:50 1004 29.65 834 24.63 12.8 55 23 -8 17.6
21:55 1004 29.65 834 24.63 12.9 55.3 23 -7.8 18
22:00 1004 29.65 833 24.6 12.8 55 24 -7.5 18.6
22:05 1004 29.65 833 24.6 12.5 54.5 23 -7.9 17.9
22:10 1004 29.65 833 24.6 12.3 54.1 24 -7.8 18
22:15 1004 29.65 833 24.6 12 53.7 25 -7.5 18.5
22:20 1004 29.65 833 24.6 11.7 53.1 25 -7.5 18.5
22:25 1004 29.65 833 24.6 11.7 53.1 24 -7.9 17.7
22:30 1004 29.65 833 24.6 12 53.6 23 -8.2 17.2
22:35 1004 29.65 833 24.6 12.2 54 24 -8 17.6
22:40 1004 29.65 833 24.6 12.5 54.5 23 -8.3 17
22:45 1004 29.65 833 24.6 12.6 54.7 23 -8 17.5
22:50 1004 29.65 834 24.63 12.5 54.5 23 -8.2 17.2
22:55 1005 29.68 834 24.63 12.4 54.3 23 -8.2 17.2
23:00 1005 29.68 834 24.63 12.1 53.8 27 -6.4 20.6
23:05 1005 29.68 835 24.66 11.7 53 33 -4.2 24.5
23:10 1006 29.71 835 24.66 11.3 52.4 38 -2.5 27.5
23:15 1005 29.68 835 24.66 10.8 51.4 40 -2.2 28.1
23:20 1006 29.71 835 24.66 10.8 51.4 42 -1.7 29
23:25 1006 29.71 835 24.66 10.5 50.8 47 -0.3 31.4
23:30 1006 29.71 835 24.66 10 50 51 0.3 32.6
23:35 1006 29.71 835 24.66 9.7 49.4 53 0.5 33
23:40 1006 29.71 835 24.66 9.4 48.9 54 0.7 33.2
23:45 1006 29.71 835 24.66 9.2 48.6 54 0.5 32.9
23:50 1006 29.71 835 24.66 9.1 48.3 55 0.5 32.8
23:55 1006 29.71 836 24.69 8.9 48.1 56 0.6 33
24:00 1007 29.74 836 24.69 8.9 48 56 0.7 33.2